»·PEaware :: N966DC KFSM-KMSN

N966DC :: KFSM-KMSN

FLIGHT INFORMATION

Flight Status: Arrived
Operator: Privately registered:
United States
More flights under this callsign
Pilot: Logan D. (20254)
Aircraft: PIPER PA-46-500TP MALIBU MERIDIAN
(P46T)
More flights by this aircraft type
Origin: KFSM Ft Smith Regl
United States
Destination: KMSN Dane Co Regl-Truax
United States
More flights between these airports :: More routes between these airports
Route: JENKY V63 JVL
File this flight plan on PilotEdge
Remarks:
Altitude:
(Current/Filed)
28,000ft
Speed:
(Current/Filed)
260kts
Departed: 22-Jul-20 07:30 AM
Arrived: 22-Jul-20 09:59 AM
Distance/Time
Traveled:
523nm/2:29
Distance/Time
To Go:
Arrived

Flight Plot

Page will automatically refresh every two minutes.

Flight plan parsing failed; only flown route is shown


Map Options




Map Legend


Flown Route
Filed Route
Departure Airport
Arrival Airport
Navaid (VOR, NDB)
Fix

Horizontal Profiles

Position Reports

Time Latitude Longitude Heading Altitude Ground
Speed
22-Jul-20 07:14 35.335981 -94.375337 170 472ft 0kts
22-Jul-20 07:15 35.335981 -94.375337 170 472ft 0kts
22-Jul-20 07:16 35.335981 -94.375337 170 472ft 0kts
22-Jul-20 07:17 35.335981 -94.375337 170 472ft 0kts
22-Jul-20 07:18 35.335981 -94.375337 170 472ft 0kts
22-Jul-20 07:19 35.335981 -94.375337 170 472ft 0kts
22-Jul-20 07:20 35.335981 -94.375337 170 472ft 0kts
22-Jul-20 07:21 35.335981 -94.375337 170 472ft 0kts
22-Jul-20 07:22 35.335981 -94.375337 170 472ft 0kts
22-Jul-20 07:23 35.335981 -94.375337 170 472ft 0kts
22-Jul-20 07:24 35.335754 -94.373022 80 472ft 0kts
22-Jul-20 07:25 35.336079 -94.370118 86 472ft 25kts
22-Jul-20 07:26 35.337322 -94.360623 82 472ft 24kts
22-Jul-20 07:27 35.337703 -94.355266 165 472ft 0kts
22-Jul-20 07:28 35.337703 -94.355266 165 472ft 0kts
22-Jul-20 07:29 35.336497 -94.358737 263 472ft 93kts
22-Jul-20 07:30 35.330583 -94.396763 258 1801ft 150kts
22-Jul-20 07:31 35.356450 -94.409308 21 3043ft 128kts
22-Jul-20 07:32 35.396947 -94.390791 21 4039ft 186kts
22-Jul-20 07:33 35.443822 -94.369297 22 5555ft 176kts
22-Jul-20 07:34 35.489027 -94.348487 22 7042ft 171kts
22-Jul-20 07:35 35.529644 -94.329727 22 8957ft 158kts
22-Jul-20 07:36 35.572369 -94.309996 21 10967ft 166kts
22-Jul-20 07:37 35.614810 -94.290406 20 12953ft 161kts
22-Jul-20 07:38 35.655396 -94.271641 20 14936ft 155kts
22-Jul-20 07:39 35.694710 -94.253438 20 16911ft 147kts
22-Jul-20 07:40 35.733567 -94.235440 20 18540ft 153kts
22-Jul-20 07:41 35.773428 -94.216955 19 20136ft 152kts
22-Jul-20 07:42 35.816176 -94.197120 19 21458ft 185kts
22-Jul-20 07:43 35.868613 -94.172753 19 22716ft 215kts
22-Jul-20 07:44 35.926499 -94.145798 19 23941ft 229kts
22-Jul-20 07:45 35.986836 -94.117653 19 25156ft 234kts
22-Jul-20 07:46 36.047658 -94.089235 19 26364ft 234kts
22-Jul-20 07:47 36.108084 -94.060955 19 27563ft 232kts
22-Jul-20 07:48 36.170233 -94.031849 19 28025ft 248kts
22-Jul-20 07:49 36.235059 -94.001407 19 28022ft 250kts
22-Jul-20 07:50 36.300583 -93.970577 19 28019ft 251kts
22-Jul-20 07:51 36.365277 -93.940018 18 28146ft 247kts
22-Jul-20 07:52 36.429746 -93.909642 19 28146ft 250kts
22-Jul-20 07:53 36.494897 -93.878824 19 28147ft 251kts
22-Jul-20 07:54 36.560167 -93.847893 19 28147ft 252kts
22-Jul-20 07:55 36.625762 -93.816753 19 28147ft 252kts
22-Jul-20 07:56 36.691594 -93.785441 19 28147ft 253kts
22-Jul-20 07:57 36.757489 -93.754044 19 28148ft 253kts
22-Jul-20 07:58 36.821658 -93.717590 27 28146ft 254kts
22-Jul-20 07:59 36.883862 -93.675933 27 28149ft 254kts
22-Jul-20 08:00 36.930128 -93.644894 27 28145ft 254kts
22-Jul-20 08:01 36.992293 -93.603064 26 28145ft 252kts
22-Jul-20 08:02 37.054117 -93.561418 24 28135ft 251kts
22-Jul-20 08:03 37.115240 -93.520199 23 28123ft 248kts
22-Jul-20 08:04 37.175377 -93.479602 23 28123ft 245kts
22-Jul-20 08:05 37.235227 -93.439074 23 28121ft 243kts
22-Jul-20 08:06 37.294830 -93.398650 23 28120ft 243kts
22-Jul-20 08:07 37.354181 -93.358324 23 28122ft 243kts
22-Jul-20 08:08 37.412474 -93.318633 23 28113ft 227kts
22-Jul-20 08:09 37.466901 -93.281523 23 28118ft 219kts
22-Jul-20 08:10 37.521130 -93.244501 23 28117ft 225kts
22-Jul-20 08:11 37.576485 -93.206620 23 28116ft 228kts
22-Jul-20 08:12 37.632510 -93.168221 23 28121ft 230kts
22-Jul-20 08:13 37.688879 -93.129520 23 28123ft 231kts
22-Jul-20 08:14 37.745646 -93.090477 23 28127ft 233kts
22-Jul-20 08:15 37.802678 -93.051176 23 28129ft 234kts
22-Jul-20 08:16 37.860029 -93.011602 24 28130ft 236kts
22-Jul-20 08:17 37.917848 -92.971620 24 28129ft 237kts
22-Jul-20 08:18 37.976060 -92.931297 24 28129ft 239kts
22-Jul-20 08:19 38.034731 -92.890578 24 28130ft 240kts
22-Jul-20 08:20 38.093622 -92.849624 24 28129ft 242kts
22-Jul-20 08:21 38.153193 -92.808127 24 28125ft 242kts
22-Jul-20 08:22 38.212174 -92.766968 25 28124ft 242kts
22-Jul-20 08:23 38.271130 -92.725743 25 28122ft 242kts
22-Jul-20 08:24 38.330302 -92.684292 24 28121ft 243kts
22-Jul-20 08:25 38.389309 -92.642879 24 28120ft 243kts
22-Jul-20 08:26 38.448664 -92.601148 24 28116ft 243kts
22-Jul-20 08:27 38.507741 -92.559528 24 28111ft 243kts
22-Jul-20 08:28 38.567117 -92.517620 24 28107ft 244kts
22-Jul-20 08:29 38.626418 -92.475687 25 28108ft 244kts
22-Jul-20 08:30 38.685832 -92.433590 25 28110ft 244kts
22-Jul-20 08:31 38.745325 -92.391362 25 28113ft 244kts
22-Jul-20 08:32 38.804646 -92.349170 25 28113ft 244kts
22-Jul-20 08:34 38.864563 -92.307337 25 28109ft 243kts
22-Jul-20 08:35 38.923635 -92.264968 24 28110ft 242kts
22-Jul-20 08:36 38.982203 -92.222853 24 28108ft 240kts
22-Jul-20 08:37 39.039974 -92.181228 23 28108ft 236kts
22-Jul-20 08:38 39.097077 -92.140037 23 28107ft 233kts
22-Jul-20 08:39 39.148632 -92.088087 35 28108ft 237kts
22-Jul-20 08:40 39.197832 -92.031914 35 28109ft 236kts
22-Jul-20 08:41 39.246943 -91.975713 35 28109ft 236kts
22-Jul-20 08:42 39.296067 -91.919365 35 28109ft 236kts
22-Jul-20 08:43 39.345224 -91.862878 35 28110ft 236kts
22-Jul-20 08:44 39.394301 -91.806375 35 28110ft 236kts
22-Jul-20 08:45 39.443411 -91.749720 35 28107ft 237kts
22-Jul-20 08:46 39.492554 -91.692929 35 28105ft 237kts
22-Jul-20 08:47 39.541629 -91.636084 35 28102ft 237kts
22-Jul-20 08:48 39.590852 -91.578957 35 28102ft 237kts
22-Jul-20 08:49 39.639784 -91.522063 35 28102ft 237kts
22-Jul-20 08:50 39.688938 -91.464793 35 28102ft 237kts
22-Jul-20 08:51 39.738126 -91.407370 35 28103ft 237kts
22-Jul-20 08:52 39.787273 -91.349890 36 28101ft 237kts
22-Jul-20 08:52 39.828588 -91.301470 36 28093ft 237kts
22-Jul-20 08:54 39.894323 -91.259171 11 28090ft 225kts
22-Jul-20 08:54 39.944194 -91.237858 11 28090ft 225kts
22-Jul-20 08:55 40.003981 -91.212345 11 28089ft 225kts
22-Jul-20 08:56 40.063815 -91.186761 11 28089ft 225kts
22-Jul-20 08:57 40.123854 -91.161051 11 28091ft 225kts
22-Jul-20 08:58 40.183658 -91.135388 11 28091ft 226kts
22-Jul-20 08:59 40.243636 -91.109613 11 28092ft 227kts
22-Jul-20 09:00 40.304076 -91.083582 11 28094ft 227kts
22-Jul-20 09:01 40.354121 -91.082096 310 28764ft 194kts
22-Jul-20 09:02 40.319200 -91.079885 117 28394ft 279kts
22-Jul-20 09:03 40.295550 -91.003491 44 28148ft 247kts
22-Jul-20 09:04 40.351807 -91.002969 339 28094ft 199kts
22-Jul-20 09:05 40.405661 -91.008646 1 28096ft 197kts
22-Jul-20 09:06 40.459852 -90.991134 9 28114ft 220kts
22-Jul-20 09:07 40.524404 -90.965422 11 28103ft 259kts
22-Jul-20 09:08 40.595499 -90.936528 11 28092ft 275kts
22-Jul-20 09:09 40.669592 -90.906349 11 28086ft 281kts
22-Jul-20 09:10 40.744594 -90.875731 11 28089ft 284kts
22-Jul-20 09:11 40.819905 -90.844928 11 28157ft 282kts
22-Jul-20 09:12 40.892445 -90.814950 10 28303ft 258kts
22-Jul-20 09:13 40.964156 -90.785694 11 28081ft 260kts
22-Jul-20 09:14 41.028408 -90.759228 9 28081ft 224kts
22-Jul-20 09:15 41.084973 -90.735924 8 28095ft 211kts
22-Jul-20 09:16 41.143774 -90.711659 8 28092ft 226kts
22-Jul-20 09:17 41.204122 -90.686657 9 28081ft 229kts
22-Jul-20 09:18 41.265235 -90.661292 9 28070ft 230kts
22-Jul-20 09:19 41.326318 -90.636015 8 28066ft 230kts
22-Jul-20 09:20 41.387675 -90.611599 8 28066ft 230kts
22-Jul-20 09:21 41.449093 -90.587130 8 28066ft 230kts
22-Jul-20 09:22 41.510430 -90.562645 8 28073ft 230kts
22-Jul-20 09:23 41.571759 -90.538115 8 28080ft 230kts
22-Jul-20 09:24 41.633162 -90.513511 8 28084ft 230kts
22-Jul-20 09:25 41.694446 -90.488900 8 28080ft 230kts
22-Jul-20 09:26 41.752720 -90.448737 22 28077ft 238kts
22-Jul-20 09:27 41.809751 -90.403538 22 28076ft 238kts
22-Jul-20 09:28 41.867728 -90.357530 23 27575ft 250kts
22-Jul-20 09:29 41.927305 -90.310076 23 26349ft 242kts
22-Jul-20 09:30 41.976411 -90.270912 23 25281ft 232kts
22-Jul-20 09:31 42.030876 -90.227390 23 24056ft 224kts
22-Jul-20 09:32 42.083811 -90.184992 23 22836ft 219kts
22-Jul-20 09:33 42.135112 -90.143825 23 21640ft 216kts
22-Jul-20 09:34 42.184790 -90.103883 24 20469ft 213kts
22-Jul-20 09:35 42.235285 -90.063210 24 19268ft 211kts
22-Jul-20 09:36 42.285869 -90.022391 24 17977ft 212kts
22-Jul-20 09:37 42.336396 -89.981534 24 16684ft 212kts
22-Jul-20 09:38 42.386977 -89.940557 25 15384ft 211kts
22-Jul-20 09:39 42.433112 -89.903004 23 15025ft 168kts
22-Jul-20 09:40 42.477099 -89.867348 24 15041ft 194kts
22-Jul-20 09:41 42.524823 -89.828482 25 14813ft 208kts
22-Jul-20 09:42 42.573389 -89.788888 25 13514ft 200kts
22-Jul-20 09:43 42.620582 -89.750325 25 12212ft 196kts
22-Jul-20 09:44 42.666712 -89.712571 25 10918ft 192kts
22-Jul-20 09:45 42.711450 -89.675875 26 9701ft 183kts
22-Jul-20 09:46 42.754039 -89.640904 26 8580ft 175kts
22-Jul-20 09:47 42.794885 -89.607285 26 7462ft 162kts
22-Jul-20 09:48 42.833399 -89.575564 27 6473ft 161kts
22-Jul-20 09:49 42.872147 -89.543582 27 5494ft 166kts
22-Jul-20 09:50 42.911284 -89.511217 27 4462ft 161kts
22-Jul-20 09:51 42.949121 -89.480613 24 3539ft 150kts
22-Jul-20 09:52 42.980414 -89.457052 23 3350ft 117kts
22-Jul-20 09:53 43.010851 -89.434175 24 2806ft 130kts
22-Jul-20 09:54 43.042252 -89.410490 25 2009ft 128kts
22-Jul-20 09:55 43.074265 -89.385761 26 1518ft 131kts
22-Jul-20 09:56 43.104630 -89.362846 26 1339ft 110kts
22-Jul-20 09:57 43.129279 -89.344670 24 1059ft 94kts
22-Jul-20 09:58 43.145720 -89.332345 43 890ft 36kts
22-Jul-20 09:59 43.150070 -89.327823 149 890ft 2kts
22-Jul-20 10:00 43.144506 -89.331576 208 890ft 19kts
22-Jul-20 10:01 43.143627 -89.327568 156 890ft 12kts
22-Jul-20 10:02 43.141613 -89.327494 181 890ft 0kts
22-Jul-20 10:03 43.141757 -89.327896 358 890ft 0kts
22-Jul-20 10:04 43.141757 -89.327896 358 890ft 0kts
22-Jul-20 10:05 43.141757 -89.327896 358 890ft 0kts
22-Jul-20 10:06 43.141757 -89.327896 358 890ft 0kts
22-Jul-20 10:07 43.141757 -89.327896 358 890ft 0kts
22-Jul-20 10:08 43.141757 -89.327896 358 890ft 0kts
22-Jul-20 10:09 43.141757 -89.327896 358 890ft 0kts
22-Jul-20 10:10 43.141757 -89.327896 358 890ft 0kts
22-Jul-20 10:11 43.141757 -89.327896 358 890ft 0kts
22-Jul-20 10:12 43.141757 -89.327896 358 890ft 0kts

Navigation Log

Ident Type
Flight plan parsing failed, navigation log unavailable